createdAt,value
2023-05-12T00:00:59.211Z,11.73
2023-05-12T00:01:59.192Z,11.72
2023-05-12T00:02:59.300Z,11.80
2023-05-12T00:03:59.393Z,11.85
2023-05-12T00:04:59.193Z,11.78
2023-05-12T00:05:59.123Z,11.75
2023-05-12T00:06:59.296Z,11.78
2023-05-12T00:07:59.125Z,11.76
2023-05-12T00:08:59.143Z,11.79
2023-05-12T00:09:59.108Z,11.69
2023-05-12T00:10:59.087Z,11.73
2023-05-12T00:11:59.067Z,11.62
2023-05-12T00:12:59.067Z,11.67
2023-05-12T00:13:59.120Z,11.64
2023-05-12T00:14:59.044Z,11.65
2023-05-12T00:15:59.370Z,11.65
2023-05-12T00:16:58.985Z,11.67
2023-05-12T00:17:59.028Z,11.60
2023-05-12T00:18:59.001Z,11.72
2023-05-12T00:19:58.997Z,11.70
2023-05-12T00:20:58.971Z,11.60
2023-05-12T00:21:58.948Z,11.51
2023-05-12T00:22:58.931Z,11.55
2023-05-12T00:23:58.902Z,11.58
2023-05-12T00:24:58.916Z,11.55
2023-05-12T00:25:58.890Z,11.52
2023-05-12T00:26:58.888Z,11.54
2023-05-12T00:27:58.958Z,11.58
2023-05-12T00:28:58.861Z,11.58
2023-05-12T00:29:58.933Z,11.57
2023-05-12T00:30:58.817Z,11.55
2023-05-12T00:31:58.893Z,11.52
2023-05-12T00:32:58.887Z,11.44
2023-05-12T00:33:58.792Z,11.51
2023-05-12T00:34:58.795Z,11.52
2023-05-12T00:35:58.864Z,11.44
2023-05-12T00:36:58.765Z,11.47
2023-05-12T00:37:58.762Z,11.40
2023-05-12T00:38:58.768Z,11.40
2023-05-12T00:39:58.733Z,11.40
2023-05-12T00:40:58.764Z,11.47
2023-05-12T00:41:58.776Z,11.51
2023-05-12T00:42:58.686Z,11.49
2023-05-12T00:43:58.688Z,11.55
2023-05-12T00:44:58.676Z,11.44
2023-05-12T00:45:58.737Z,11.54
2023-05-12T00:46:58.725Z,11.49
2023-05-12T00:47:58.704Z,11.42
2023-05-12T00:48:58.636Z,11.43
2023-05-12T00:49:58.611Z,11.43
2023-05-12T00:50:58.604Z,11.37
2023-05-12T00:51:58.681Z,11.29
2023-05-12T00:52:59.093Z,11.29
2023-05-12T00:53:58.565Z,11.47
2023-05-12T00:54:58.597Z,11.33
2023-05-12T00:55:58.555Z,11.40
2023-05-12T00:56:58.537Z,11.43
2023-05-12T00:57:58.604Z,11.43
2023-05-12T00:58:58.521Z,11.36
2023-05-12T00:59:58.511Z,11.37
2023-05-12T01:00:58.501Z,11.43
2023-05-12T01:01:58.959Z,11.36
2023-05-12T01:02:58.776Z,11.42
2023-05-12T01:03:58.438Z,11.36
2023-05-12T01:04:58.481Z,11.32
2023-05-12T01:05:58.442Z,11.29
2023-05-12T01:06:58.450Z,11.33
2023-05-12T01:07:58.420Z,11.37
2023-05-12T01:08:58.602Z,11.27
2023-05-12T01:09:58.394Z,11.33
2023-05-12T01:10:58.447Z,11.39
2023-05-12T01:11:58.383Z,11.42
2023-05-12T01:12:58.339Z,11.33
2023-05-12T01:13:58.909Z,11.27
2023-05-12T01:14:58.326Z,11.32
2023-05-12T01:15:58.323Z,11.28
2023-05-12T01:16:58.474Z,11.33
2023-05-12T01:17:58.317Z,11.36
2023-05-12T01:18:58.375Z,11.36
2023-05-12T01:19:58.305Z,11.33
2023-05-12T01:20:58.255Z,11.36
2023-05-12T01:21:58.264Z,11.28
2023-05-12T01:22:58.230Z,11.33
2023-05-12T01:23:58.204Z,11.22
2023-05-12T01:24:58.245Z,11.39
2023-05-12T01:25:58.174Z,11.40
2023-05-12T01:26:58.177Z,11.36
2023-05-12T01:27:58.207Z,11.40
2023-05-12T01:28:58.149Z,11.35
2023-05-12T01:29:58.173Z,11.37
2023-05-12T01:30:58.204Z,11.33
2023-05-12T01:31:58.107Z,11.36
2023-05-12T01:32:58.124Z,11.33
2023-05-12T01:33:58.088Z,11.18
2023-05-12T01:34:58.074Z,11.24
2023-05-12T01:35:58.084Z,11.33
2023-05-12T01:36:58.069Z,11.25
2023-05-12T01:37:59.033Z,11.32
2023-05-12T01:38:58.021Z,11.28
2023-05-12T01:39:58.058Z,11.36
2023-05-12T01:40:58.031Z,11.25
2023-05-12T01:41:58.006Z,11.22
2023-05-12T01:42:58.034Z,11.25
2023-05-12T01:43:57.983Z,11.24
2023-05-12T01:44:57.974Z,11.24
2023-05-12T01:45:58.069Z,11.24
2023-05-12T01:46:57.949Z,11.17
2023-05-12T01:47:57.941Z,11.18
2023-05-12T01:48:57.931Z,11.22
2023-05-12T01:49:57.896Z,11.18
2023-05-12T01:50:57.876Z,11.09
2023-05-12T01:51:57.916Z,11.10
2023-05-12T01:52:57.877Z,11.21
2023-05-12T01:53:57.850Z,11.17
2023-05-12T01:54:57.824Z,11.10
2023-05-12T01:55:57.855Z,11.09
2023-05-12T01:56:58.625Z,11.09
2023-05-12T01:57:57.801Z,11.14
2023-05-12T01:58:57.801Z,11.14
2023-05-12T01:59:58.769Z,11.07
2023-05-12T02:00:57.747Z,11.09
2023-05-12T02:01:57.770Z,11.14
2023-05-12T02:02:57.884Z,11.07
2023-05-12T02:03:57.775Z,11.17
2023-05-12T02:04:57.738Z,11.09
2023-05-12T02:05:57.728Z,11.02
2023-05-12T02:06:57.702Z,11.00
2023-05-12T02:07:57.733Z,10.99
2023-05-12T02:08:57.684Z,10.91
2023-05-12T02:09:57.859Z,10.96
2023-05-12T02:10:57.645Z,11.03
2023-05-12T02:11:57.665Z,11.06
2023-05-12T02:12:57.641Z,11.03
2023-05-12T02:13:57.601Z,10.97
2023-05-12T02:14:57.608Z,11.02
2023-05-12T02:15:57.634Z,10.91
2023-05-12T02:16:57.565Z,11.00
2023-05-12T02:17:57.586Z,11.00
2023-05-12T02:18:57.644Z,11.04
2023-05-12T02:19:57.524Z,11.04
2023-05-12T02:20:57.562Z,11.06
2023-05-12T02:21:57.531Z,11.02
2023-05-12T02:22:57.502Z,10.97
2023-05-12T02:23:57.562Z,10.92
2023-05-12T02:24:57.474Z,10.97
2023-05-12T02:25:57.470Z,10.92
2023-05-12T02:26:57.451Z,10.97
2023-05-12T02:27:57.492Z,10.89
2023-05-12T02:28:57.411Z,11.02
2023-05-12T02:29:57.456Z,11.02
2023-05-12T02:30:57.420Z,10.92
2023-05-12T02:31:57.475Z,10.97
2023-05-12T02:32:57.412Z,11.03
2023-05-12T02:33:57.363Z,11.03
2023-05-12T02:34:57.372Z,11.02
2023-05-12T02:35:57.379Z,11.07
2023-05-12T02:36:57.328Z,11.06
2023-05-12T02:37:57.338Z,11.10
2023-05-12T02:38:57.337Z,11.17
2023-05-12T02:39:57.345Z,11.07
2023-05-12T02:40:57.287Z,11.14
2023-05-12T02:41:57.264Z,11.15
2023-05-12T02:42:58.480Z,11.10
2023-05-12T02:43:58.263Z,10.97
2023-05-12T02:44:57.284Z,11.10
2023-05-12T02:45:57.304Z,11.10
2023-05-12T02:46:57.240Z,11.11
2023-05-12T02:47:57.286Z,11.10
2023-05-12T02:48:57.211Z,11.06
2023-05-12T02:49:57.214Z,11.10
2023-05-12T02:50:57.188Z,11.17
2023-05-12T02:51:57.231Z,11.22
2023-05-12T02:52:57.184Z,11.07
2023-05-12T02:53:57.152Z,11.14
2023-05-12T02:54:57.165Z,11.18
2023-05-12T02:55:57.155Z,11.18
2023-05-12T02:56:57.111Z,11.15
2023-05-12T02:57:57.134Z,11.09
2023-05-12T02:58:57.119Z,11.03
2023-05-12T02:59:57.064Z,11.07
2023-05-12T03:01:09.485Z,10.97
2023-05-12T03:01:57.158Z,10.91
2023-05-12T03:02:57.160Z,11.03
2023-05-12T03:03:57.105Z,11.11
2023-05-12T03:04:57.020Z,10.97
2023-05-12T03:05:57.024Z,11.04
2023-05-12T03:06:57.036Z,11.03
2023-05-12T03:07:57.003Z,10.97
2023-05-12T03:08:57.015Z,10.99
2023-05-12T03:09:56.940Z,10.86
2023-05-12T03:10:56.940Z,10.91
2023-05-12T03:11:56.999Z,10.96
2023-05-12T03:12:56.928Z,10.88
2023-05-12T03:13:56.910Z,10.94
2023-05-12T03:14:56.887Z,10.96
2023-05-12T03:15:56.896Z,10.99
2023-05-12T03:16:56.877Z,11.02
2023-05-12T03:17:56.983Z,11.07
2023-05-12T03:18:56.935Z,10.99
2023-05-12T03:19:56.838Z,11.04
2023-05-12T03:20:56.851Z,11.04
2023-05-12T03:21:56.826Z,11.15
2023-05-12T03:22:56.834Z,11.19
2023-05-12T03:23:56.801Z,11.06
2023-05-12T03:24:56.805Z,11.09
2023-05-12T03:25:56.768Z,11.07
2023-05-12T03:26:56.760Z,11.06
2023-05-12T03:27:56.749Z,11.19
2023-05-12T03:28:56.745Z,11.18
2023-05-12T03:29:56.728Z,11.22
2023-05-12T03:30:56.780Z,11.28
2023-05-12T03:31:56.717Z,11.28
2023-05-12T03:32:56.676Z,11.28
2023-05-12T03:33:56.684Z,11.25
2023-05-12T03:34:56.682Z,11.33
2023-05-12T03:35:56.656Z,11.25
2023-05-12T03:36:56.638Z,11.24
2023-05-12T03:37:58.188Z,11.29
2023-05-12T03:38:56.646Z,11.25
2023-05-12T03:39:56.602Z,11.35
2023-05-12T03:40:56.585Z,11.24
2023-05-12T03:41:56.576Z,11.22
2023-05-12T03:42:56.556Z,11.29
2023-05-12T03:43:56.575Z,11.27
2023-05-12T03:44:56.552Z,11.44
2023-05-12T03:45:56.538Z,11.32
2023-05-12T03:46:56.964Z,11.42
2023-05-12T03:47:56.527Z,11.37
2023-05-12T03:48:56.500Z,11.43
2023-05-12T03:49:56.569Z,11.40
2023-05-12T03:50:56.474Z,11.33
2023-05-12T03:51:56.482Z,11.36
2023-05-12T03:52:56.461Z,11.36
2023-05-12T03:53:56.448Z,11.32
2023-05-12T03:54:56.495Z,11.28
2023-05-12T03:55:56.733Z,11.35
2023-05-12T03:56:56.408Z,11.25
2023-05-12T03:57:56.387Z,11.39
2023-05-12T03:58:56.390Z,11.27
2023-05-12T03:59:56.375Z,11.40
2023-05-12T04:00:56.375Z,11.39
2023-05-12T04:01:56.360Z,11.36
2023-05-12T04:02:56.421Z,11.39
2023-05-12T04:03:56.410Z,11.36
2023-05-12T04:04:56.345Z,11.42
2023-05-12T04:05:56.347Z,11.37
2023-05-12T04:06:56.290Z,11.39
2023-05-12T04:07:56.274Z,11.35
2023-05-12T04:08:56.271Z,11.39
2023-05-12T04:09:56.275Z,11.29
2023-05-12T04:10:56.271Z,11.35
2023-05-12T04:11:56.244Z,11.40
2023-05-12T04:12:56.238Z,11.49
2023-05-12T04:13:56.212Z,11.52
2023-05-12T04:14:56.199Z,11.51
2023-05-12T04:15:56.194Z,11.49
2023-05-12T04:16:56.444Z,11.44
2023-05-12T04:17:56.178Z,11.54
2023-05-12T04:18:56.169Z,11.51
2023-05-12T04:19:56.134Z,11.58
2023-05-12T04:20:56.152Z,11.49
2023-05-12T04:21:56.144Z,11.49
2023-05-12T04:22:56.097Z,11.39
2023-05-12T04:23:56.109Z,11.51
2023-05-12T04:24:56.079Z,11.54
2023-05-12T04:25:56.073Z,11.65
2023-05-12T04:26:56.059Z,11.57
2023-05-12T04:27:56.085Z,11.67
2023-05-12T04:28:56.053Z,11.52
2023-05-12T04:29:56.011Z,11.62
2023-05-12T04:30:56.011Z,11.61
2023-05-12T04:31:56.026Z,11.61
2023-05-12T04:32:56.075Z,11.67
2023-05-12T04:33:55.967Z,11.60
2023-05-12T04:34:55.975Z,11.65
2023-05-12T04:35:55.938Z,11.64
2023-05-12T04:36:55.960Z,11.73
2023-05-12T04:37:55.976Z,11.69
2023-05-12T04:38:55.917Z,11.75
2023-05-12T04:39:55.944Z,11.69
2023-05-12T04:40:55.955Z,11.90
2023-05-12T04:41:56.607Z,11.80
2023-05-12T04:42:55.937Z,11.79
2023-05-12T04:44:55.851Z,11.76
2023-05-12T04:45:57.034Z,11.88
2023-05-12T04:46:55.848Z,11.85
2023-05-12T04:47:55.838Z,11.94
2023-05-12T04:48:55.870Z,11.85
2023-05-12T04:49:55.792Z,11.91
2023-05-12T04:50:56.428Z,11.86
2023-05-12T04:51:55.809Z,11.91
2023-05-12T04:52:55.792Z,11.98
2023-05-12T04:53:55.801Z,11.83
2023-05-12T04:54:55.751Z,11.98
2023-05-12T04:55:55.732Z,12.09
2023-05-12T04:56:55.713Z,12.10
2023-05-12T04:57:55.705Z,12.23
2023-05-12T04:58:55.684Z,12.27
2023-05-12T04:59:55.716Z,12.42
2023-05-12T05:00:55.765Z,12.37
2023-05-12T05:01:55.680Z,12.37
2023-05-12T05:02:55.817Z,12.56
2023-05-12T05:03:55.710Z,12.68
2023-05-12T05:04:55.662Z,12.86
2023-05-12T05:05:55.625Z,12.96
2023-05-12T05:06:55.603Z,13.08
2023-05-12T05:07:55.597Z,13.11
2023-05-12T05:08:55.599Z,13.15
2023-05-12T05:09:55.630Z,13.32
2023-05-12T05:10:55.556Z,13.67
2023-05-12T05:11:55.554Z,14.10
2023-05-12T05:12:55.545Z,14.02
2023-05-12T05:13:55.540Z,13.82
2023-05-12T05:14:55.532Z,13.48
2023-05-12T05:15:55.581Z,13.33
2023-05-12T05:16:55.488Z,13.29
2023-05-12T05:17:55.585Z,13.22
2023-05-12T05:18:55.510Z,13.28
2023-05-12T05:19:59.044Z,13.26
2023-05-12T05:20:58.440Z,13.11
2023-05-12T05:21:55.566Z,13.19
2023-05-12T05:22:55.427Z,13.20
2023-05-12T05:23:55.433Z,13.29
2023-05-12T05:24:55.435Z,13.36
2023-05-12T05:25:55.457Z,13.48
2023-05-12T05:26:55.384Z,13.73
2023-05-12T05:27:55.394Z,14.29
2023-05-12T05:28:55.370Z,14.29
2023-05-12T05:29:55.346Z,14.07
2023-05-12T05:30:55.484Z,14.10
2023-05-12T05:31:55.451Z,14.15
2023-05-12T05:32:55.359Z,14.04
2023-05-12T05:33:55.407Z,13.99
2023-05-12T05:34:55.295Z,14.32
2023-05-12T05:35:55.387Z,14.32
2023-05-12T05:36:55.277Z,14.55
2023-05-12T05:37:55.282Z,14.70
2023-05-12T05:38:55.299Z,14.54
2023-05-12T05:39:55.285Z,14.39
2023-05-12T05:40:55.274Z,14.18
2023-05-12T05:41:55.268Z,14.14
2023-05-12T05:42:55.219Z,14.00
2023-05-12T05:43:55.222Z,14.17
2023-05-12T05:44:55.206Z,14.12
2023-05-12T05:45:55.197Z,13.87
2023-05-12T05:46:55.332Z,13.91
2023-05-12T05:47:55.176Z,13.44
2023-05-12T05:48:55.176Z,13.10
2023-05-12T05:49:55.137Z,13.10
2023-05-12T05:50:55.151Z,13.15
2023-05-12T05:51:55.201Z,13.15
2023-05-12T05:52:55.137Z,13.28
2023-05-12T05:53:55.106Z,13.33
2023-05-12T05:54:58.312Z,13.36
2023-05-12T05:55:55.081Z,13.36
2023-05-12T05:56:55.109Z,13.39
2023-05-12T05:57:55.130Z,13.36
2023-05-12T05:58:55.089Z,13.33
2023-05-12T05:59:55.060Z,13.07
2023-05-12T06:00:55.036Z,12.95
2023-05-12T06:01:55.088Z,12.96
2023-05-12T06:02:55.136Z,13.04
2023-05-12T06:03:55.095Z,13.08
2023-05-12T06:04:55.018Z,13.17
2023-05-12T06:05:54.984Z,13.19
2023-05-12T06:06:54.984Z,13.23
2023-05-12T06:07:54.981Z,13.32
2023-05-12T06:08:54.986Z,13.48
2023-05-12T06:09:54.927Z,13.38
2023-05-12T06:10:54.924Z,13.42
2023-05-12T06:11:54.910Z,13.55
2023-05-12T06:12:54.911Z,13.70
2023-05-12T06:13:54.970Z,13.51
2023-05-12T06:14:54.873Z,13.54
2023-05-12T06:15:54.888Z,13.39
2023-05-12T06:16:54.894Z,13.48
2023-05-12T06:17:54.907Z,13.77
2023-05-12T06:18:54.883Z,13.81
2023-05-12T06:19:54.851Z,13.99
2023-05-12T06:20:54.827Z,13.99
2023-05-12T06:21:54.803Z,14.22
2023-05-12T06:22:54.805Z,14.25
2023-05-12T06:23:54.820Z,14.24
2023-05-12T06:24:54.841Z,14.37
2023-05-12T06:25:54.766Z,14.43
2023-05-12T06:26:54.758Z,14.42
2023-05-12T06:27:54.805Z,14.40
2023-05-12T06:28:54.761Z,14.35
2023-05-12T06:29:54.817Z,14.36
2023-05-12T06:30:54.761Z,14.33
2023-05-12T06:31:54.724Z,14.39
2023-05-12T06:32:54.728Z,14.45
2023-05-12T06:33:54.692Z,14.36
2023-05-12T06:34:54.711Z,14.40
2023-05-12T06:35:54.674Z,14.39
2023-05-12T06:36:55.139Z,14.46
2023-05-12T06:37:54.638Z,14.58
2023-05-12T06:38:54.623Z,14.60
2023-05-12T06:39:54.614Z,14.60
2023-05-12T06:40:54.720Z,14.80
2023-05-12T06:41:54.591Z,14.81
2023-05-12T06:42:54.580Z,14.88
2023-05-12T06:43:54.610Z,14.86
2023-05-12T06:44:54.576Z,14.94
2023-05-12T06:45:54.695Z,15.25
2023-05-12T06:46:54.541Z,15.32
2023-05-12T06:47:54.572Z,15.38
2023-05-12T06:48:54.521Z,15.31
2023-05-12T06:49:54.554Z,15.17
2023-05-12T06:50:54.543Z,15.31
2023-05-12T06:51:54.513Z,15.13
2023-05-12T06:52:54.484Z,15.19
2023-05-12T06:53:54.491Z,15.19
2023-05-12T06:54:54.452Z,15.25
2023-05-12T06:55:54.453Z,15.39
2023-05-12T06:56:54.511Z,15.38
2023-05-12T06:57:54.429Z,15.09
2023-05-12T06:58:54.426Z,15.11
2023-05-12T06:59:54.436Z,15.01
2023-05-12T07:00:54.416Z,14.80
2023-05-12T07:01:54.452Z,14.72
2023-05-12T07:02:54.425Z,14.89
2023-05-12T07:03:54.383Z,15.02
2023-05-12T07:04:54.349Z,14.73
2023-05-12T07:05:54.397Z,14.51
2023-05-12T07:06:54.323Z,14.42
2023-05-12T07:07:54.385Z,14.50
2023-05-12T07:08:54.316Z,14.64
2023-05-12T07:09:54.293Z,14.68
2023-05-12T07:10:54.282Z,14.84
2023-05-12T07:11:54.269Z,14.88
2023-05-12T07:12:54.345Z,14.96
2023-05-12T07:13:54.271Z,14.81
2023-05-12T07:14:54.256Z,14.78
2023-05-12T07:15:54.256Z,14.73
2023-05-12T07:16:54.231Z,14.86
2023-05-12T07:17:54.286Z,15.13
2023-05-12T07:18:54.261Z,15.53
2023-05-12T07:19:54.191Z,15.62
2023-05-12T07:20:54.166Z,15.69
2023-05-12T07:21:54.186Z,15.71
2023-05-12T07:22:54.170Z,15.67
2023-05-12T07:23:54.179Z,15.31
2023-05-12T07:24:54.152Z,15.34
2023-05-12T07:25:54.130Z,15.47
2023-05-12T07:26:54.134Z,15.14
2023-05-12T07:27:54.102Z,14.89
2023-05-12T07:28:54.144Z,15.10
2023-05-12T07:29:54.112Z,15.09
2023-05-12T07:30:54.103Z,15.31
2023-05-12T07:31:54.086Z,15.67
2023-05-12T07:32:54.085Z,16.14
2023-05-12T07:33:54.132Z,16.97
2023-05-12T07:34:54.049Z,18.03
2023-05-12T07:35:54.403Z,18.20
2023-05-12T07:36:54.001Z,17.99
2023-05-12T07:37:53.991Z,17.64
2023-05-12T07:38:53.957Z,17.63
2023-05-12T07:39:54.024Z,17.63
2023-05-12T07:40:53.972Z,17.48
2023-05-12T07:41:53.980Z,17.01
2023-05-12T07:42:53.972Z,16.53
2023-05-12T07:43:53.935Z,16.53
2023-05-12T07:44:54.278Z,16.30
2023-05-12T07:45:53.905Z,16.05
2023-05-12T07:46:53.905Z,15.76
2023-05-12T07:47:54.062Z,15.90
2023-05-12T07:48:53.938Z,16.09
2023-05-12T07:49:53.931Z,16.07
2023-05-12T07:50:53.959Z,16.02
2023-05-12T07:51:53.858Z,16.48
2023-05-12T07:52:53.812Z,16.71
2023-05-12T07:53:53.793Z,16.68
2023-05-12T07:54:53.798Z,16.82
2023-05-12T07:55:53.820Z,17.40
2023-05-12T07:56:53.791Z,17.25
2023-05-12T07:57:53.742Z,17.11
2023-05-12T07:58:53.747Z,16.89
2023-05-12T07:59:53.735Z,16.41
2023-05-12T08:00:53.743Z,16.68
2023-05-12T08:01:54.125Z,16.86
2023-05-12T08:02:53.992Z,17.12
2023-05-12T08:03:53.766Z,17.31
2023-05-12T08:04:53.684Z,17.08
2023-05-12T08:05:53.676Z,17.23
2023-05-12T08:06:53.686Z,17.26
2023-05-12T08:07:53.650Z,17.23
2023-05-12T08:08:53.694Z,16.98
2023-05-12T08:09:53.610Z,17.33
2023-05-12T08:10:53.613Z,17.40
2023-05-12T08:11:53.647Z,17.41
2023-05-12T08:12:53.590Z,17.21
2023-05-12T08:13:53.599Z,17.19
2023-05-12T08:14:53.609Z,17.07
2023-05-12T08:15:53.546Z,17.06
2023-05-12T08:16:53.602Z,17.31
2023-05-12T08:17:53.605Z,17.55
2023-05-12T08:18:53.639Z,17.77
2023-05-12T08:19:53.556Z,17.63
2023-05-12T08:20:53.473Z,17.36
2023-05-12T08:21:53.559Z,17.18
2023-05-12T08:22:53.516Z,16.68
2023-05-12T08:23:53.438Z,16.75
2023-05-12T08:24:53.481Z,16.58
2023-05-12T08:25:53.428Z,16.85
2023-05-12T08:26:53.426Z,17.21
2023-05-12T08:27:53.409Z,17.55
2023-05-12T08:28:53.408Z,17.54
2023-05-12T08:29:53.357Z,17.95
2023-05-12T08:30:54.367Z,17.59
2023-05-12T08:31:53.340Z,17.51
2023-05-12T08:32:53.344Z,17.38
2023-05-12T08:34:08.929Z,17.34
2023-05-12T08:34:53.339Z,17.26
2023-05-12T08:35:53.301Z,17.21
2023-05-12T08:36:53.294Z,16.91
2023-05-12T08:37:53.333Z,17.23
2023-05-12T08:38:54.161Z,17.36
2023-05-12T08:39:53.945Z,17.33
2023-05-12T08:40:53.225Z,17.22
2023-05-12T08:41:53.225Z,17.25
2023-05-12T08:42:53.205Z,17.30
2023-05-12T08:43:53.228Z,17.55
2023-05-12T08:44:53.213Z,17.51
2023-05-12T08:45:53.152Z,17.51
2023-05-12T08:46:53.215Z,17.71
2023-05-12T08:47:53.180Z,17.74
2023-05-12T08:48:53.185Z,17.64
2023-05-12T08:49:53.144Z,17.63
2023-05-12T08:50:53.137Z,17.72
2023-05-12T08:51:57.941Z,17.78
2023-05-12T08:52:53.091Z,17.70
2023-05-12T08:53:53.177Z,17.59
2023-05-12T08:54:56.350Z,17.15
2023-05-12T08:57:08.904Z,17.19
2023-05-12T08:57:53.081Z,17.74
2023-05-12T08:58:53.021Z,17.33
2023-05-12T08:59:53.025Z,17.16
2023-05-12T09:00:53.083Z,17.31
2023-05-12T09:01:52.997Z,17.46
2023-05-12T09:02:54.733Z,17.71
2023-05-12T09:03:53.044Z,17.54
2023-05-12T09:04:53.132Z,17.70
2023-05-12T09:05:52.962Z,18.00
2023-05-12T09:06:54.963Z,18.05
2023-05-12T09:07:52.908Z,18.27
2023-05-12T09:08:52.904Z,18.41
2023-05-12T09:09:52.916Z,18.27
2023-05-12T09:10:52.925Z,18.07
2023-05-12T09:11:52.868Z,18.25
2023-05-12T09:12:52.862Z,18.51
2023-05-12T09:13:52.893Z,18.60
2023-05-12T09:14:52.830Z,18.63
2023-05-12T09:15:52.946Z,18.42
2023-05-12T09:16:52.833Z,18.45
2023-05-12T09:17:53.047Z,18.57
2023-05-12T09:18:52.977Z,18.75
2023-05-12T09:19:52.816Z,18.90
2023-05-12T09:20:52.810Z,18.73
2023-05-12T09:21:52.732Z,18.30
2023-05-12T09:22:52.761Z,17.79
2023-05-12T09:23:52.809Z,17.95
2023-05-12T09:24:52.749Z,18.39
2023-05-12T09:25:52.791Z,18.54
2023-05-12T09:26:52.746Z,18.82
2023-05-12T09:27:52.689Z,18.99
2023-05-12T09:28:52.701Z,18.87
2023-05-12T09:29:59.151Z,18.20
2023-05-12T09:30:54.626Z,18.27
2023-05-12T09:31:52.696Z,18.67
2023-05-12T09:32:52.676Z,18.91
2023-05-12T09:33:52.573Z,19.14
2023-05-12T09:34:52.658Z,19.51
2023-05-12T09:35:52.560Z,19.37
2023-05-12T09:36:52.573Z,19.10
2023-05-12T09:37:52.593Z,19.16
2023-05-12T09:38:52.535Z,19.63
2023-05-12T09:39:52.536Z,19.99
2023-05-12T09:40:52.566Z,20.39
2023-05-12T09:41:52.601Z,20.01
2023-05-12T09:42:52.501Z,19.84
2023-05-12T09:43:52.498Z,19.61
2023-05-12T09:44:52.491Z,19.07
2023-05-12T09:45:52.567Z,19.36
2023-05-12T09:46:52.464Z,19.58
2023-05-12T09:47:52.535Z,19.55
2023-05-12T09:48:52.421Z,19.91
2023-05-12T09:49:52.518Z,19.91
2023-05-12T09:50:52.667Z,19.81
2023-05-12T09:51:52.397Z,20.02
2023-05-12T09:52:52.441Z,20.38
2023-05-12T09:53:52.370Z,20.58
2023-05-12T09:54:52.377Z,20.18
2023-05-12T09:55:52.398Z,19.76
2023-05-12T09:56:52.349Z,20.39
2023-05-12T09:57:52.368Z,20.91
2023-05-12T09:58:52.311Z,21.14
2023-05-12T09:59:52.305Z,21.40
2023-05-12T10:01:13.458Z,21.68
2023-05-12T10:01:53.279Z,22.14
2023-05-12T10:02:52.329Z,22.57
2023-05-12T10:03:52.303Z,22.75
2023-05-12T10:04:53.416Z,22.51
2023-05-12T10:05:52.264Z,22.57
2023-05-12T10:06:52.229Z,22.70
2023-05-12T10:07:52.282Z,21.67
2023-05-12T10:08:52.245Z,20.64
2023-05-12T10:09:52.214Z,20.98
2023-05-12T10:10:52.191Z,21.37
2023-05-12T10:11:53.968Z,21.59
2023-05-12T10:12:52.174Z,21.74
2023-05-12T10:13:52.189Z,22.00
2023-05-12T10:14:52.124Z,21.69
2023-05-12T10:15:52.148Z,21.27
2023-05-12T10:16:52.222Z,20.80
2023-05-12T10:17:53.901Z,20.98
2023-05-12T10:18:52.166Z,21.01
2023-05-12T10:19:52.189Z,20.91
2023-05-12T10:20:52.105Z,20.47
2023-05-12T10:21:52.161Z,19.83
2023-05-12T10:22:52.074Z,19.65
2023-05-12T10:23:52.070Z,19.54
2023-05-12T10:24:52.064Z,18.85
2023-05-12T10:25:51.976Z,19.21
2023-05-12T10:26:52.048Z,19.36
2023-05-12T10:27:52.008Z,19.47
2023-05-12T10:28:51.927Z,19.46
2023-05-12T10:29:53.656Z,19.83
2023-05-12T10:30:51.917Z,20.11
2023-05-12T10:31:51.982Z,19.95
2023-05-12T10:32:51.921Z,19.74
2023-05-12T10:33:52.672Z,20.10
2023-05-12T10:34:51.908Z,20.38
2023-05-12T10:35:51.906Z,20.82
2023-05-12T10:36:51.843Z,20.79
2023-05-12T10:37:51.928Z,20.31
2023-05-12T10:39:21.156Z,19.69
2023-05-12T13:26:29.431Z,20.36
2023-05-12T13:27:30.757Z,19.91
2023-05-12T13:28:30.766Z,19.98
2023-05-12T13:29:30.316Z,19.84
2023-05-12T13:30:31.316Z,19.77
2023-05-12T13:31:30.197Z,19.73
2023-05-12T13:32:30.221Z,19.74
2023-05-12T13:33:30.184Z,19.74
2023-05-12T13:34:30.882Z,19.99
2023-05-12T13:35:30.343Z,20.05
2023-05-12T13:36:30.252Z,20.08
2023-05-12T13:37:30.039Z,20.10
2023-05-12T13:38:30.297Z,19.99
2023-05-12T13:39:30.055Z,19.83
2023-05-12T13:40:30.253Z,19.74
2023-05-12T13:41:30.012Z,19.91
2023-05-12T13:42:30.001Z,19.94
2023-05-12T13:43:29.972Z,20.28
2023-05-12T13:44:30.655Z,20.21
2023-05-12T13:45:30.014Z,20.29
2023-05-12T13:46:30.032Z,20.33
2023-05-12T13:47:30.148Z,20.39
2023-05-12T13:48:29.908Z,20.38
2023-05-12T13:49:30.033Z,19.91
2023-05-12T13:50:33.313Z,20.06
2023-05-12T13:51:30.483Z,20.02
2023-05-12T13:52:29.867Z,20.13
2023-05-12T13:53:29.848Z,20.29
2023-05-12T13:54:29.903Z,20.48
2023-05-12T13:55:30.820Z,20.72
2023-05-12T13:56:29.853Z,19.88
2023-05-12T13:57:29.729Z,19.94
2023-05-12T13:58:29.735Z,20.11
2023-05-12T13:59:29.789Z,20.02
2023-05-12T14:00:29.782Z,20.11
2023-05-12T14:01:29.804Z,20.05
2023-05-12T14:02:29.772Z,19.73
2023-05-12T14:03:29.766Z,19.84
2023-05-12T14:04:29.712Z,19.84
2023-05-12T14:05:29.718Z,19.98
2023-05-12T14:06:29.831Z,20.13
2023-05-12T14:07:29.675Z,20.28
2023-05-12T14:08:29.993Z,20.36
2023-05-12T14:09:30.300Z,20.47
2023-05-12T14:10:29.703Z,20.67
2023-05-12T14:11:29.673Z,20.48
2023-05-12T14:12:29.661Z,20.76
2023-05-12T14:13:29.700Z,20.94
2023-05-12T14:14:29.663Z,20.76
2023-05-12T14:15:40.584Z,20.61
2023-05-12T14:16:30.697Z,20.67
2023-05-12T14:17:29.629Z,20.61
2023-05-12T14:18:29.676Z,20.67
2023-05-12T14:19:29.587Z,20.91
2023-05-12T14:20:29.589Z,20.89
2023-05-12T14:21:29.576Z,21.27
2023-05-12T14:22:30.053Z,21.32
2023-05-12T14:23:29.498Z,20.70
2023-05-12T14:24:29.496Z,21.03
2023-05-12T14:25:29.553Z,21.12
2023-05-12T14:26:29.973Z,21.27
2023-05-12T14:27:29.434Z,21.44
2023-05-12T14:28:29.534Z,21.49
2023-05-12T14:29:29.803Z,21.38
2023-05-12T14:30:30.881Z,21.40
2023-05-12T14:31:30.080Z,21.71
2023-05-12T16:14:33.675Z,20.02
2023-05-12T16:15:34.782Z,20.05
2023-05-12T16:16:34.889Z,20.06
2023-05-12T16:17:34.682Z,20.10
2023-05-12T16:18:34.772Z,20.01
2023-05-12T16:19:34.734Z,20.11
2023-05-12T16:20:34.643Z,20.06
2023-05-12T16:21:35.374Z,19.84
2023-05-12T16:22:34.598Z,19.77
2023-05-12T16:23:34.602Z,19.74
2023-05-12T16:24:34.680Z,19.71
2023-05-12T16:25:34.537Z,19.68
2023-05-12T16:26:34.538Z,19.59
2023-05-12T16:27:34.545Z,19.43
2023-05-12T16:28:34.532Z,19.43
2023-05-12T16:29:34.536Z,19.37
2023-05-12T16:30:34.591Z,19.18
2023-05-12T16:31:34.495Z,19.14
2023-05-12T16:32:34.535Z,19.10
2023-05-12T16:33:34.427Z,19.14
2023-05-12T16:34:34.410Z,19.29
2023-05-12T16:35:34.418Z,19.22
2023-05-12T16:36:34.391Z,19.21
2023-05-12T16:37:34.362Z,18.95
2023-05-12T16:38:34.356Z,19.06
2023-05-12T16:39:34.408Z,18.88
2023-05-12T16:40:34.370Z,18.88
2023-05-12T16:41:34.348Z,18.94
2023-05-12T16:42:34.326Z,18.87
2023-05-12T16:43:34.300Z,18.88
2023-05-12T16:44:34.346Z,18.75
2023-05-12T16:45:34.327Z,18.73
2023-05-12T16:46:34.496Z,18.75
2023-05-12T16:47:34.288Z,18.65
2023-05-12T16:48:35.384Z,18.65
2023-05-12T16:49:34.230Z,18.69
2023-05-12T16:50:34.263Z,18.75
2023-05-12T16:51:34.255Z,18.62
2023-05-12T16:52:34.199Z,18.54
2023-05-12T16:53:34.186Z,18.54
2023-05-12T16:54:34.205Z,18.50
2023-05-12T16:55:34.146Z,18.47
2023-05-12T16:56:34.198Z,18.63
2023-05-12T16:57:34.158Z,18.66
2023-05-12T16:58:34.133Z,18.70
2023-05-12T16:59:34.126Z,18.65
2023-05-12T17:00:34.116Z,18.63
2023-05-12T17:01:34.175Z,18.66
2023-05-12T17:02:34.278Z,18.54
2023-05-12T17:03:34.363Z,18.62
2023-05-12T17:04:34.034Z,18.60
2023-05-12T17:05:34.021Z,18.54
2023-05-12T17:06:34.079Z,18.62
2023-05-12T17:07:34.029Z,18.76
2023-05-12T17:08:33.988Z,18.54
2023-05-12T17:09:33.972Z,18.67
2023-05-12T17:10:34.007Z,18.67
2023-05-12T17:11:34.005Z,18.80
2023-05-12T17:12:33.965Z,18.88
2023-05-12T17:13:33.925Z,18.80
2023-05-12T17:14:33.947Z,18.85
2023-05-12T17:15:33.893Z,18.91
2023-05-12T17:16:33.983Z,18.98
2023-05-12T17:17:33.958Z,18.92
2023-05-12T17:19:13.689Z,18.88
2023-05-12T17:19:33.928Z,18.94
2023-05-12T17:20:33.859Z,18.82
2023-05-12T17:21:33.806Z,18.81
2023-05-12T17:22:33.816Z,18.78
2023-05-12T17:23:33.839Z,18.76